createdAt,value
2017-04-19T00:00:35.230Z,7.20
2017-04-19T00:01:35.827Z,7.28
2017-04-19T00:02:36.417Z,7.32
2017-04-19T00:03:37.010Z,7.33
2017-04-19T00:04:37.603Z,7.23
2017-04-19T00:05:38.197Z,7.33
2017-04-19T00:06:38.795Z,7.28
2017-04-19T00:07:39.384Z,7.25
2017-04-19T00:08:39.984Z,7.23
2017-04-19T00:09:40.574Z,7.32
2017-04-19T00:10:41.166Z,7.24
2017-04-19T00:11:41.765Z,7.33
2017-04-19T00:12:42.356Z,7.21
2017-04-19T00:13:42.951Z,7.23
2017-04-19T00:14:43.565Z,7.20
2017-04-19T00:15:44.174Z,7.25
2017-04-19T00:16:44.765Z,7.25
2017-04-19T00:17:45.359Z,7.20
2017-04-19T00:18:45.967Z,7.20
2017-04-19T00:19:46.561Z,7.23
2017-04-19T00:20:47.154Z,7.23
2017-04-19T00:21:47.747Z,7.23
2017-04-19T00:22:48.347Z,7.23
2017-04-19T00:23:48.945Z,7.28
2017-04-19T00:24:49.532Z,7.28
2017-04-19T00:25:50.125Z,7.21
2017-04-19T00:26:50.718Z,7.33
2017-04-19T00:27:51.329Z,7.39
2017-04-19T00:28:51.926Z,7.40
2017-04-19T00:29:52.520Z,7.40
2017-04-19T00:30:53.129Z,7.39
2017-04-19T00:31:53.738Z,7.47
2017-04-19T00:32:54.331Z,7.43
2017-04-19T00:33:54.931Z,7.33
2017-04-19T00:34:55.521Z,7.35
2017-04-19T00:35:56.118Z,7.32
2017-04-19T00:36:56.710Z,7.29
2017-04-19T00:37:57.304Z,7.25
2017-04-19T00:38:57.904Z,7.28
2017-04-19T00:39:58.493Z,7.28
2017-04-19T00:40:59.086Z,7.20
2017-04-19T00:41:59.685Z,7.20
2017-04-19T00:43:00.279Z,7.18
2017-04-19T00:44:00.871Z,7.21
2017-04-19T00:45:01.470Z,7.28
2017-04-19T00:46:02.067Z,7.17
2017-04-19T00:47:02.680Z,7.25
2017-04-19T00:48:03.270Z,7.17
2017-04-19T00:49:03.866Z,7.14
2017-04-19T00:50:04.459Z,7.15
2017-04-19T00:51:05.056Z,7.15
2017-04-19T00:52:05.667Z,7.07
2017-04-19T00:53:06.258Z,7.13
2017-04-19T00:54:06.853Z,7.06
2017-04-19T00:55:07.445Z,7.05
2017-04-19T00:56:08.038Z,7.13
2017-04-19T00:57:08.632Z,7.06
2017-04-19T00:58:09.224Z,7.11
2017-04-19T00:59:09.831Z,6.99
2017-04-19T01:00:10.424Z,7.06
2017-04-19T01:01:11.021Z,6.99
2017-04-19T01:02:11.619Z,6.92
2017-04-19T01:03:12.215Z,6.95
2017-04-19T01:04:12.805Z,6.89
2017-04-19T01:05:13.401Z,6.89
2017-04-19T01:06:13.991Z,6.95
2017-04-19T01:07:14.603Z,6.93
2017-04-19T01:08:15.197Z,6.88
2017-04-19T01:09:15.791Z,6.97
2017-04-19T01:10:16.379Z,7.03
2017-04-19T01:11:16.987Z,6.97
2017-04-19T01:12:17.578Z,7.05
2017-04-19T01:13:18.173Z,7.02
2017-04-19T01:14:18.765Z,7.06
2017-04-19T01:15:19.358Z,7.15
2017-04-19T01:16:19.966Z,7.10
2017-04-19T01:17:20.559Z,7.06
2017-04-19T01:18:21.152Z,7.13
2017-04-19T01:19:21.745Z,7.07
2017-04-19T01:20:22.339Z,7.10
2017-04-19T01:21:22.946Z,7.14
2017-04-19T01:22:23.556Z,7.14
2017-04-19T01:23:24.147Z,7.06
2017-04-19T01:24:24.756Z,7.20
2017-04-19T01:25:25.350Z,7.18
2017-04-19T01:26:25.943Z,7.24
2017-04-19T01:27:26.536Z,7.13
2017-04-19T01:28:27.133Z,7.17
2017-04-19T01:29:27.724Z,7.10
2017-04-19T01:30:28.319Z,7.11
2017-04-19T01:31:28.921Z,7.07
2017-04-19T01:32:29.506Z,7.13
2017-04-19T01:33:30.102Z,7.11
2017-04-19T01:34:30.692Z,7.10
2017-04-19T01:35:31.285Z,7.13
2017-04-19T01:36:31.880Z,7.06
2017-04-19T01:37:32.473Z,7.13
2017-04-19T01:38:33.064Z,7.14
2017-04-19T01:39:33.662Z,7.06
2017-04-19T01:40:34.258Z,7.06
2017-04-19T01:41:34.846Z,7.02
2017-04-19T01:42:35.447Z,7.07
2017-04-19T01:43:36.037Z,7.00
2017-04-19T01:44:36.630Z,7.02
2017-04-19T01:45:37.228Z,6.96
2017-04-19T01:46:37.820Z,6.95
2017-04-19T01:47:38.411Z,6.85
2017-04-19T01:48:39.004Z,6.70
2017-04-19T01:49:39.600Z,6.74
2017-04-19T01:50:40.197Z,6.56
2017-04-19T01:51:40.787Z,6.54
2017-04-19T01:52:41.388Z,6.63
2017-04-19T01:53:41.984Z,6.64
2017-04-19T01:54:42.574Z,6.64
2017-04-19T01:55:43.166Z,6.69
2017-04-19T01:56:43.760Z,6.67
2017-04-19T01:57:44.357Z,6.70
2017-04-19T01:58:44.948Z,6.63
2017-04-19T01:59:45.542Z,6.63
2017-04-19T02:00:46.140Z,6.75
2017-04-19T02:01:46.736Z,6.74
2017-04-19T02:02:47.325Z,6.63
2017-04-19T02:03:47.919Z,6.60
2017-04-19T02:04:48.517Z,6.63
2017-04-19T02:05:49.107Z,6.56
2017-04-19T02:06:49.699Z,6.45
2017-04-19T02:07:50.294Z,6.38
2017-04-19T02:08:50.887Z,6.17
2017-04-19T02:09:51.487Z,6.11
2017-04-19T02:10:52.081Z,5.94
2017-04-19T02:11:52.676Z,5.99
2017-04-19T02:12:53.265Z,5.89
2017-04-19T02:13:53.865Z,5.82
2017-04-19T02:14:54.454Z,5.94
2017-04-19T02:15:55.047Z,5.90
2017-04-19T02:16:55.643Z,5.83
2017-04-19T02:17:56.249Z,5.86
2017-04-19T02:18:56.842Z,5.79
2017-04-19T02:19:57.434Z,5.75
2017-04-19T02:20:58.028Z,5.76
2017-04-19T02:21:58.619Z,5.76
2017-04-19T02:22:59.218Z,5.80
2017-04-19T02:23:59.807Z,5.80
2017-04-19T02:25:00.406Z,5.84
2017-04-19T02:26:00.995Z,5.90
2017-04-19T02:27:01.593Z,5.76
2017-04-19T02:28:02.183Z,5.89
2017-04-19T02:29:02.780Z,5.93
2017-04-19T02:30:03.368Z,5.99
2017-04-19T02:31:03.962Z,5.97
2017-04-19T02:32:04.553Z,6.09
2017-04-19T02:33:05.146Z,6.16
2017-04-19T02:34:05.737Z,6.12
2017-04-19T02:35:06.330Z,6.17
2017-04-19T02:36:06.922Z,6.27
2017-04-19T02:37:07.517Z,6.28
2017-04-19T02:38:08.108Z,6.22
2017-04-19T02:39:08.701Z,6.22
2017-04-19T02:40:09.293Z,6.28
2017-04-19T02:41:09.888Z,6.38
2017-04-19T02:42:10.480Z,6.33
2017-04-19T02:43:11.088Z,6.36
2017-04-19T02:44:11.685Z,6.33
2017-04-19T02:45:12.277Z,6.39
2017-04-19T02:46:12.868Z,6.42
2017-04-19T02:47:13.476Z,6.42
2017-04-19T02:48:14.068Z,6.45
2017-04-19T02:49:14.667Z,6.45
2017-04-19T02:50:15.256Z,6.48
2017-04-19T02:51:15.865Z,6.42
2017-04-19T02:52:16.458Z,6.49
2017-04-19T02:53:17.051Z,6.54
2017-04-19T02:54:17.643Z,6.54
2017-04-19T02:55:18.242Z,6.49
2017-04-19T02:56:18.837Z,6.51
2017-04-19T02:57:19.428Z,6.45
2017-04-19T02:58:20.020Z,6.52
2017-04-19T02:59:20.612Z,6.45
2017-04-19T03:00:21.206Z,6.41
2017-04-19T03:01:21.799Z,6.46
2017-04-19T03:02:22.390Z,6.44
2017-04-19T03:03:22.984Z,6.45
2017-04-19T03:04:23.576Z,6.31
2017-04-19T03:05:24.169Z,6.31
2017-04-19T03:06:24.768Z,6.42
2017-04-19T03:07:25.364Z,6.41
2017-04-19T03:08:25.953Z,6.54
2017-04-19T03:09:26.544Z,6.54
2017-04-19T03:10:27.149Z,6.49
2017-04-19T03:11:27.735Z,6.64
2017-04-19T03:12:28.326Z,6.70
2017-04-19T03:13:28.933Z,6.74
2017-04-19T03:14:29.533Z,6.70
2017-04-19T03:15:30.128Z,6.72
2017-04-19T03:16:30.737Z,6.75
2017-04-19T03:17:31.330Z,6.70
2017-04-19T03:18:31.927Z,6.81
2017-04-19T03:19:32.524Z,6.77
2017-04-19T03:20:33.118Z,6.81
2017-04-19T03:21:33.715Z,6.84
2017-04-19T03:22:34.305Z,6.81
2017-04-19T03:23:34.899Z,6.79
2017-04-19T03:24:35.495Z,6.88
2017-04-19T03:25:36.085Z,6.84
2017-04-19T03:26:36.684Z,6.82
2017-04-19T03:27:37.273Z,6.89
2017-04-19T03:28:37.864Z,6.82
2017-04-19T03:29:38.458Z,6.87
2017-04-19T03:30:39.072Z,6.87
2017-04-19T03:31:39.661Z,6.84
2017-04-19T03:32:40.255Z,6.79
2017-04-19T03:33:40.847Z,6.89
2017-04-19T03:34:41.454Z,6.92
2017-04-19T03:35:42.046Z,6.87
2017-04-19T03:36:42.639Z,6.85
2017-04-19T03:37:43.248Z,6.84
2017-04-19T03:38:43.842Z,6.87
2017-04-19T03:39:44.435Z,6.84
2017-04-19T03:40:45.027Z,6.79
2017-04-19T03:41:45.620Z,6.79
2017-04-19T03:42:46.213Z,6.79
2017-04-19T03:43:46.806Z,6.78
2017-04-19T03:44:47.397Z,6.89
2017-04-19T03:45:47.992Z,6.92
2017-04-19T03:46:48.584Z,6.84
2017-04-19T03:47:49.175Z,6.85
2017-04-19T03:48:49.783Z,6.89
2017-04-19T03:49:50.376Z,6.88
2017-04-19T03:50:50.974Z,6.81
2017-04-19T03:51:51.563Z,6.75
2017-04-19T03:52:52.155Z,6.67
2017-04-19T03:53:52.759Z,6.70
2017-04-19T03:54:53.343Z,6.63
2017-04-19T03:55:53.942Z,6.67
2017-04-19T03:56:54.549Z,6.72
2017-04-19T03:57:55.144Z,6.70
2017-04-19T03:58:55.736Z,6.66
2017-04-19T03:59:56.327Z,6.64
2017-04-19T04:00:56.921Z,6.70
2017-04-19T04:01:57.513Z,6.64
2017-04-19T04:02:58.106Z,6.67
2017-04-19T04:03:58.698Z,6.66
2017-04-19T04:04:59.291Z,6.57
2017-04-19T04:05:59.889Z,6.56
2017-04-19T04:07:00.484Z,6.66
2017-04-19T04:08:01.073Z,6.62
2017-04-19T04:09:01.666Z,6.56
2017-04-19T04:10:02.259Z,6.59
2017-04-19T04:11:02.852Z,6.57
2017-04-19T04:12:03.449Z,6.57
2017-04-19T04:13:04.047Z,6.60
2017-04-19T04:14:04.654Z,6.52
2017-04-19T04:15:05.253Z,6.54
2017-04-19T04:16:05.841Z,6.54
2017-04-19T04:17:06.434Z,6.56
2017-04-19T04:18:07.030Z,6.46
2017-04-19T04:19:07.623Z,6.49
2017-04-19T04:20:08.221Z,6.52
2017-04-19T04:21:08.836Z,6.48
2017-04-19T04:22:09.446Z,6.35
2017-04-19T04:23:10.039Z,6.33
2017-04-19T04:24:10.632Z,6.30
2017-04-19T04:25:11.226Z,6.30
2017-04-19T04:26:11.819Z,6.30
2017-04-19T04:27:12.412Z,6.38
2017-04-19T04:28:13.008Z,6.26
2017-04-19T04:29:13.601Z,6.26
2017-04-19T04:30:14.195Z,6.16
2017-04-19T04:31:14.804Z,6.20
2017-04-19T04:32:15.413Z,6.19
2017-04-19T04:33:16.006Z,6.22
2017-04-19T04:34:16.606Z,6.28
2017-04-19T04:35:17.196Z,6.28
2017-04-19T04:36:17.790Z,6.30
2017-04-19T04:37:18.383Z,6.30
2017-04-19T04:38:18.977Z,6.28
2017-04-19T04:39:19.571Z,6.28
2017-04-19T04:40:20.172Z,6.14
2017-04-19T04:41:20.764Z,6.09
2017-04-19T04:42:21.358Z,6.14
2017-04-19T04:43:21.953Z,6.14
2017-04-19T04:44:22.547Z,6.17
2017-04-19T04:45:23.145Z,6.20
2017-04-19T04:46:23.744Z,6.22
2017-04-19T04:47:24.336Z,6.19
2017-04-19T04:48:24.945Z,6.20
2017-04-19T04:49:25.540Z,6.35
2017-04-19T04:50:26.135Z,6.27
2017-04-19T04:51:26.730Z,6.17
2017-04-19T04:52:27.324Z,6.22
2017-04-19T04:53:27.922Z,6.14
2017-04-19T04:54:28.516Z,6.22
2017-04-19T04:55:29.110Z,6.20
2017-04-19T04:56:29.704Z,6.24
2017-04-19T04:57:30.299Z,6.20
2017-04-19T04:58:30.895Z,6.24
2017-04-19T04:59:31.489Z,6.22
2017-04-19T05:00:32.083Z,6.16
2017-04-19T05:01:32.679Z,6.16
2017-04-19T05:02:33.274Z,6.20
2017-04-19T05:03:33.874Z,6.16
2017-04-19T05:04:34.490Z,6.27
2017-04-19T05:05:35.100Z,6.31
2017-04-19T05:06:35.700Z,6.30
2017-04-19T05:07:36.293Z,6.38
2017-04-19T05:08:36.894Z,6.24
2017-04-19T05:09:37.568Z,6.16
2017-04-19T05:10:38.160Z,6.14
2017-04-19T05:11:38.753Z,6.11
2017-04-19T05:12:39.350Z,6.05
2017-04-19T05:13:39.959Z,6.05
2017-04-19T05:14:40.556Z,6.27
2017-04-19T05:15:41.168Z,6.20
2017-04-19T05:16:41.767Z,6.28
2017-04-19T05:17:42.364Z,6.42
2017-04-19T05:18:42.956Z,6.41
2017-04-19T05:19:43.553Z,6.54
2017-04-19T05:20:44.153Z,6.51
2017-04-19T05:21:44.746Z,6.70
2017-04-19T05:22:45.363Z,6.72
2017-04-19T05:23:45.955Z,6.75
2017-04-19T05:24:46.556Z,6.81
2017-04-19T05:25:47.150Z,6.87
2017-04-19T05:26:47.761Z,6.87
2017-04-19T05:27:48.356Z,6.95
2017-04-19T05:28:48.951Z,6.93
2017-04-19T05:29:49.554Z,6.87
2017-04-19T05:30:50.146Z,6.95
2017-04-19T05:31:50.944Z,6.99
2017-04-19T05:32:51.555Z,6.96
2017-04-19T05:33:52.149Z,7.03
2017-04-19T05:34:52.746Z,7.14
2017-04-19T05:35:53.343Z,7.14
2017-04-19T05:36:53.959Z,7.20
2017-04-19T05:37:54.554Z,7.21
2017-04-19T05:38:55.149Z,7.18
2017-04-19T05:39:55.751Z,7.24
2017-04-19T05:40:56.351Z,7.31
2017-04-19T05:41:56.950Z,7.23
2017-04-19T05:42:57.562Z,7.23
2017-04-19T05:43:58.164Z,7.25
2017-04-19T05:44:58.861Z,7.25
2017-04-19T05:45:59.458Z,7.21
2017-04-19T05:47:00.127Z,7.23
2017-04-19T05:48:00.724Z,7.28
2017-04-19T05:49:01.335Z,7.23
2017-04-19T05:50:01.960Z,7.24
2017-04-19T05:51:02.624Z,7.24
2017-04-19T05:52:03.221Z,7.23
2017-04-19T05:53:03.873Z,7.23
2017-04-19T05:54:04.473Z,7.24
2017-04-19T05:55:05.149Z,7.28
2017-04-19T05:56:05.746Z,7.23
2017-04-19T05:57:06.344Z,7.25
2017-04-19T05:58:06.940Z,7.25
2017-04-19T05:59:07.570Z,7.23
2017-04-19T06:00:08.171Z,7.32
2017-04-19T06:01:08.771Z,7.25
2017-04-19T06:02:09.383Z,7.28
2017-04-19T06:03:09.995Z,7.23
2017-04-19T06:04:10.682Z,7.18
2017-04-19T06:05:11.284Z,7.21
2017-04-19T06:06:11.916Z,7.25
2017-04-19T06:07:12.548Z,7.31
2017-04-19T06:08:13.173Z,7.36
2017-04-19T06:09:13.773Z,7.43
2017-04-19T06:10:14.369Z,7.38
2017-04-19T06:11:14.965Z,7.38
2017-04-19T06:12:15.736Z,7.48
2017-04-19T06:13:16.332Z,7.51
2017-04-19T06:14:16.929Z,7.56
2017-04-19T06:15:17.541Z,7.63
2017-04-19T06:16:18.140Z,7.73
2017-04-19T06:17:18.758Z,7.76
2017-04-19T06:18:19.426Z,7.72
2017-04-19T06:19:20.024Z,7.80
2017-04-19T06:20:20.625Z,7.90
2017-04-19T06:21:21.228Z,7.93
2017-04-19T06:22:21.904Z,8.05
2017-04-19T06:23:22.561Z,8.08
2017-04-19T06:24:23.177Z,8.00
2017-04-19T06:25:23.778Z,7.95
2017-04-19T06:26:24.375Z,7.97
2017-04-19T06:27:24.983Z,7.93
2017-04-19T06:28:25.573Z,7.91
2017-04-19T06:29:26.177Z,7.90
2017-04-19T06:30:26.791Z,7.82
2017-04-19T06:31:27.416Z,7.76
2017-04-19T06:32:28.018Z,7.72
2017-04-19T06:33:28.614Z,7.57
2017-04-19T06:34:29.227Z,7.40
2017-04-19T06:35:29.833Z,7.36
2017-04-19T06:36:30.428Z,7.25
2017-04-19T06:37:31.028Z,7.28
2017-04-19T06:38:31.632Z,7.35
2017-04-19T06:39:32.228Z,7.43
2017-04-19T06:40:32.828Z,7.57
2017-04-19T06:41:33.428Z,7.70
2017-04-19T06:42:34.034Z,7.85
2017-04-19T06:43:34.637Z,8.19
2017-04-19T06:44:35.242Z,8.37
2017-04-19T06:45:35.838Z,8.60
2017-04-19T06:46:36.437Z,8.70
2017-04-19T06:47:37.035Z,8.94
2017-04-19T06:48:37.640Z,9.03
2017-04-19T06:49:38.248Z,9.26
2017-04-19T06:50:38.843Z,9.40
2017-04-19T06:51:39.669Z,9.74
2017-04-19T06:52:40.323Z,9.99
2017-04-19T06:53:40.922Z,10.19
2017-04-19T06:54:41.524Z,10.48
2017-04-19T06:55:42.132Z,10.53
2017-04-19T06:56:42.749Z,10.57
2017-04-19T06:57:43.520Z,10.57
2017-04-19T06:58:44.104Z,10.63
2017-04-19T06:59:44.707Z,10.81
2017-04-19T07:00:45.308Z,11.02
2017-04-19T07:01:45.966Z,11.47
2017-04-19T07:02:46.571Z,11.81
2017-04-19T07:03:47.178Z,12.18
2017-04-19T07:04:47.784Z,12.55
2017-04-19T07:05:48.389Z,13.16
2017-04-19T07:06:48.996Z,13.74
2017-04-19T07:07:49.604Z,14.23
2017-04-19T07:08:50.219Z,14.89
2017-04-19T07:09:50.826Z,15.47
2017-04-19T07:10:51.450Z,15.98
2017-04-19T07:11:52.062Z,16.51
2017-04-19T07:12:52.673Z,16.87
2017-04-19T07:13:53.305Z,17.30
2017-04-19T07:14:53.914Z,17.56
2017-04-19T07:15:54.528Z,17.83
2017-04-19T07:16:55.144Z,18.11
2017-04-19T07:17:55.760Z,18.50
2017-04-19T07:18:56.368Z,18.73
2017-04-19T07:19:56.986Z,19.02
2017-04-19T07:20:57.612Z,19.16
2017-04-19T07:21:58.232Z,19.36
2017-04-19T07:22:58.863Z,19.77
2017-04-19T07:23:59.477Z,19.88
2017-04-19T07:25:00.091Z,20.24
2017-04-19T07:26:00.771Z,20.44
2017-04-19T07:27:01.386Z,20.74
2017-04-19T07:28:02.056Z,21.14
2017-04-19T07:29:02.672Z,21.18
2017-04-19T07:30:03.285Z,21.50
2017-04-19T07:31:03.905Z,21.40
2017-04-19T07:32:04.522Z,20.93
2017-04-19T07:33:05.159Z,20.24
2017-04-19T07:34:05.775Z,19.81
2017-04-19T07:35:06.396Z,19.63
2017-04-19T07:36:07.008Z,19.16
2017-04-19T07:37:07.629Z,18.80
2017-04-19T07:38:08.251Z,18.43
2017-04-19T07:39:08.864Z,18.11
2017-04-19T07:40:09.481Z,17.68
2017-04-19T07:41:10.113Z,17.36
2017-04-19T07:42:10.730Z,17.29
2017-04-19T07:43:11.342Z,17.20
2017-04-19T07:44:12.006Z,16.93
2017-04-19T07:45:12.620Z,16.64
2017-04-19T07:46:13.233Z,16.36
2017-04-19T07:47:13.849Z,16.05
2017-04-19T07:48:14.461Z,15.80
2017-04-19T07:49:15.074Z,15.46
2017-04-19T07:50:15.687Z,15.11
2017-04-19T07:51:16.299Z,14.84
2017-04-19T07:52:16.911Z,14.72
2017-04-19T07:53:17.522Z,14.48
2017-04-19T07:54:18.148Z,14.29
2017-04-19T07:55:18.760Z,14.04
2017-04-19T07:56:19.371Z,13.75
2017-04-19T07:57:19.982Z,13.65
2017-04-19T07:58:20.607Z,13.52
2017-04-19T07:59:21.218Z,13.52
2017-04-19T08:00:21.825Z,13.42
2017-04-19T08:01:22.434Z,13.16
2017-04-19T08:02:23.291Z,13.01
2017-04-19T08:03:23.907Z,13.15
2017-04-19T08:04:24.522Z,13.18
2017-04-19T08:05:25.121Z,13.57
2017-04-19T08:06:25.733Z,13.89
2017-04-19T08:07:26.355Z,14.23
2017-04-19T08:08:27.229Z,14.69
2017-04-19T08:09:27.843Z,15.11
2017-04-19T08:10:28.454Z,15.67
2017-04-19T08:11:29.061Z,16.09
2017-04-19T08:12:29.676Z,16.51
2017-04-19T08:13:30.289Z,16.89
2017-04-19T08:14:30.898Z,17.15
2017-04-19T08:15:31.510Z,17.86
2017-04-19T08:16:32.123Z,18.37
2017-04-19T08:17:32.756Z,18.95
2017-04-19T08:18:33.616Z,19.31
2017-04-19T08:19:34.235Z,19.69
2017-04-19T08:20:34.845Z,20.09
2017-04-19T08:21:35.709Z,20.26
2017-04-19T08:22:36.323Z,20.63
2017-04-19T08:23:36.938Z,21.07
2017-04-19T08:24:37.554Z,21.09
2017-04-19T08:25:38.173Z,20.78
2017-04-19T08:26:38.804Z,20.48
2017-04-19T08:27:39.675Z,20.44
2017-04-19T08:28:40.293Z,20.62
2017-04-19T08:29:40.906Z,21.00
2017-04-19T08:30:41.534Z,21.54
2017-04-19T08:31:42.164Z,22.18
2017-04-19T08:32:42.785Z,22.35
2017-04-19T08:33:43.405Z,22.35
2017-04-19T08:34:44.010Z,22.00
2017-04-19T08:35:44.624Z,21.32
2017-04-19T08:36:45.253Z,20.63
2017-04-19T08:37:45.866Z,20.06
2017-04-19T08:38:46.481Z,19.55
2017-04-19T08:39:47.093Z,19.04
2017-04-19T08:40:47.712Z,18.65
2017-04-19T08:41:48.320Z,18.26
2017-04-19T08:42:48.930Z,18.03
2017-04-19T08:43:49.545Z,17.68
2017-04-19T08:44:50.157Z,17.39
2017-04-19T08:45:50.765Z,17.09
2017-04-19T08:46:51.371Z,16.86
2017-04-19T08:47:51.993Z,16.58
2017-04-19T08:48:52.599Z,16.33
2017-04-19T08:49:53.212Z,16.16
2017-04-19T08:50:53.815Z,15.97
2017-04-19T08:51:54.424Z,15.59
2017-04-19T08:52:55.031Z,15.19
2017-04-19T08:53:55.637Z,15.03
2017-04-19T08:54:56.244Z,14.73
2017-04-19T08:55:56.850Z,14.51
2017-04-19T08:56:57.476Z,14.35
2017-04-19T08:57:58.342Z,14.37
2017-04-19T08:58:58.954Z,14.36
2017-04-19T08:59:59.556Z,14.30
2017-04-19T09:01:00.164Z,14.18
2017-04-19T09:02:00.769Z,13.95
2017-04-19T09:03:01.381Z,13.60
2017-04-19T09:04:02.002Z,13.25
2017-04-19T09:05:02.858Z,13.27
2017-04-19T09:06:03.468Z,13.20
2017-04-19T09:07:04.073Z,13.05
2017-04-19T09:08:04.730Z,12.91
2017-04-19T09:09:05.340Z,12.75
2017-04-19T09:10:05.951Z,12.80
2017-04-19T09:11:06.563Z,12.67
2017-04-19T09:12:07.167Z,12.67
2017-04-19T09:13:08.024Z,12.73
2017-04-19T09:14:08.632Z,12.97
2017-04-19T09:15:09.241Z,13.33
2017-04-19T09:16:09.850Z,13.89
2017-04-19T09:17:10.458Z,14.48
2017-04-19T09:18:11.090Z,15.15
2017-04-19T09:19:11.703Z,15.90
2017-04-19T09:20:12.334Z,16.58
2017-04-19T09:21:12.943Z,17.09
2017-04-19T09:22:13.557Z,17.41
2017-04-19T09:23:14.177Z,17.76
2017-04-19T09:24:14.842Z,18.11
2017-04-19T09:25:15.470Z,18.07
2017-04-19T09:26:16.086Z,18.28
2017-04-19T09:27:16.707Z,18.59
2017-04-19T09:28:17.326Z,18.89
2017-04-19T09:29:17.953Z,19.04
2017-04-19T09:30:18.587Z,18.95
2017-04-19T09:31:19.216Z,18.93
2017-04-19T09:32:19.832Z,18.77
2017-04-19T09:33:20.447Z,18.45
2017-04-19T11:38:33.879Z,8.08
2017-04-19T11:39:34.486Z,7.93
2017-04-19T11:40:35.086Z,7.87
2017-04-19T11:41:36.516Z,7.93
2017-04-19T11:42:37.119Z,7.90
2017-04-19T11:43:37.719Z,7.79
2017-04-19T11:44:38.321Z,7.75
2017-04-19T11:45:38.922Z,7.77
2017-04-19T11:46:39.523Z,7.72
2017-04-19T11:47:40.141Z,7.72
2017-04-19T11:48:40.740Z,7.56
2017-04-19T11:49:41.343Z,7.51
2017-04-19T11:50:41.943Z,7.50
2017-04-19T11:51:42.545Z,7.60
2017-04-19T11:52:43.151Z,7.61
2017-04-19T11:53:43.749Z,7.75
2017-04-19T11:54:44.350Z,7.67
2017-04-19T11:55:44.956Z,7.80
2017-04-19T11:56:45.555Z,7.88
2017-04-19T11:57:46.158Z,7.88
2017-04-19T11:58:47.007Z,7.85
2017-04-19T11:59:47.609Z,7.76
2017-04-19T12:00:48.210Z,7.72
2017-04-19T12:01:48.813Z,7.67
2017-04-19T12:02:49.413Z,7.70
2017-04-19T12:03:50.035Z,7.87
2017-04-19T12:04:50.631Z,7.93
2017-04-19T12:05:51.232Z,8.05
2017-04-19T12:06:51.840Z,8.05
2017-04-19T12:07:52.437Z,8.15
2017-04-19T12:08:53.296Z,8.12
2017-04-19T12:09:53.895Z,8.01
2017-04-19T12:10:54.495Z,7.97
2017-04-19T12:11:55.102Z,7.69
2017-04-19T12:12:55.700Z,7.50
2017-04-19T12:13:56.559Z,7.23
2017-04-19T12:14:57.156Z,7.13
2017-04-19T12:15:57.758Z,7.11
2017-04-19T12:16:58.357Z,7.03
2017-04-19T12:17:58.959Z,6.92
2017-04-19T12:18:59.568Z,6.88
2017-04-19T12:20:00.165Z,6.92
2017-04-19T12:21:00.766Z,6.87
2017-04-19T12:22:01.367Z,6.97
2017-04-19T12:23:01.969Z,7.06
2017-04-19T12:24:02.571Z,7.05
2017-04-19T12:25:03.171Z,7.11
2017-04-19T12:26:03.769Z,7.05
2017-04-19T12:27:04.371Z,6.99
2017-04-19T12:28:04.973Z,6.99
2017-04-19T12:29:05.582Z,6.96
2017-04-19T12:30:06.179Z,7.06
2017-04-19T12:31:06.780Z,7.15
2017-04-19T12:32:07.396Z,7.29
2017-04-19T12:33:08.002Z,7.42
2017-04-19T12:34:08.601Z,7.53
2017-04-19T12:35:09.201Z,7.60
2017-04-19T12:36:09.804Z,7.67
2017-04-19T12:37:10.403Z,7.61
2017-04-19T12:38:11.004Z,7.60
2017-04-19T12:39:11.611Z,7.63
2017-04-19T12:40:12.214Z,7.61
2017-04-19T12:41:12.812Z,7.53
2017-04-19T12:42:13.415Z,7.40
2017-04-19T12:43:14.020Z,7.31
2017-04-19T12:44:14.622Z,7.28
2017-04-19T12:45:15.221Z,7.23
2017-04-19T12:46:15.826Z,7.24
2017-04-19T12:47:16.446Z,7.23
2017-04-19T12:48:17.029Z,7.24
2017-04-19T12:49:17.636Z,7.20
2017-04-19T12:50:18.234Z,7.25
2017-04-19T12:51:18.836Z,7.24
2017-04-19T12:52:19.440Z,7.24
2017-04-19T12:53:20.038Z,7.32
2017-04-19T12:54:20.639Z,7.23
2017-04-19T12:55:21.246Z,7.11
2017-04-19T12:56:21.844Z,7.14
2017-04-19T12:57:22.453Z,7.14
2017-04-19T12:58:23.052Z,7.06
2017-04-19T12:59:23.653Z,7.17
2017-04-19T13:00:24.255Z,7.43
2017-04-19T13:01:24.855Z,7.57
2017-04-19T13:02:25.457Z,7.70
2017-04-19T13:03:26.060Z,7.77
2017-04-19T13:04:26.687Z,7.85
2017-04-19T13:05:27.283Z,7.82
2017-04-19T13:06:27.889Z,7.61
2017-04-19T13:07:28.505Z,7.45
2017-04-19T13:08:29.106Z,7.38
2017-04-19T13:09:29.712Z,7.31
2017-04-19T13:10:30.311Z,7.25
2017-04-19T13:11:30.917Z,7.25
2017-04-19T13:12:31.516Z,7.18
2017-04-19T13:13:32.137Z,7.21
2017-04-19T13:14:32.955Z,7.18
2017-04-19T13:15:33.556Z,7.13
2017-04-19T13:16:34.156Z,7.24
2017-04-19T13:17:34.756Z,7.42
2017-04-19T13:18:35.377Z,7.48
2017-04-19T13:19:35.974Z,7.51
2017-04-19T13:20:36.575Z,7.33
2017-04-19T13:21:37.177Z,7.31
2017-04-19T13:22:37.780Z,7.21
2017-04-19T13:23:38.379Z,7.15
2017-04-19T13:24:38.980Z,7.11
2017-04-19T13:25:39.596Z,7.13
2017-04-19T13:26:40.201Z,7.14
2017-04-19T13:27:40.798Z,7.13
2017-04-19T13:28:41.407Z,7.10
2017-04-19T13:29:42.008Z,7.23
2017-04-19T13:30:42.610Z,7.33
2017-04-19T13:31:43.217Z,7.24
2017-04-19T13:32:43.820Z,7.32
2017-04-19T13:33:44.418Z,7.24
2017-04-19T13:34:45.021Z,7.10
2017-04-19T13:35:45.632Z,7.05
2017-04-19T13:36:46.233Z,6.88
2017-04-19T13:37:46.836Z,6.79
2017-04-19T13:38:47.452Z,6.67
2017-04-19T13:39:48.067Z,6.62
2017-04-19T13:40:48.669Z,6.52
2017-04-19T13:41:49.270Z,6.48
2017-04-19T13:42:49.893Z,6.44
2017-04-19T13:43:50.553Z,6.41
2017-04-19T13:44:51.141Z,6.30
2017-04-19T13:45:51.757Z,6.11
2017-04-19T13:46:52.357Z,6.20
2017-04-19T13:47:52.957Z,6.09
2017-04-19T13:48:53.556Z,6.20
2017-04-19T13:49:54.157Z,6.27
2017-04-19T13:50:54.758Z,6.26
2017-04-19T13:51:55.377Z,6.35
2017-04-19T13:52:55.976Z,6.35
2017-04-19T13:53:56.581Z,6.39
2017-04-19T13:54:57.228Z,6.57
2017-04-19T13:55:57.828Z,6.63
2017-04-19T13:56:58.426Z,6.64
2017-04-19T13:57:59.047Z,6.67
2017-04-19T13:58:59.642Z,6.75
2017-04-19T14:00:00.244Z,6.77
2017-04-19T14:01:00.851Z,6.70
2017-04-19T14:02:01.464Z,6.62
2017-04-19T14:03:02.115Z,6.56
2017-04-19T14:04:02.718Z,6.51
2017-04-19T14:05:03.326Z,6.36
2017-04-19T14:06:03.918Z,6.45
2017-04-19T14:07:04.518Z,6.33
2017-04-19T14:08:05.170Z,6.26
2017-04-19T14:09:05.782Z,6.16
2017-04-19T14:10:06.380Z,6.11
2017-04-19T14:11:06.988Z,6.09
2017-04-19T14:12:07.603Z,5.91
2017-04-19T14:13:08.203Z,5.80
2017-04-19T14:14:08.803Z,5.76
2017-04-19T14:15:09.408Z,5.68
2017-04-19T14:16:10.003Z,5.47
2017-04-19T14:17:10.603Z,5.50
2017-04-19T14:18:11.207Z,5.33
2017-04-19T14:19:11.806Z,5.33
2017-04-19T14:20:12.404Z,5.25
2017-04-19T14:21:13.003Z,5.12
2017-04-19T14:22:13.603Z,5.18
2017-04-19T14:23:14.219Z,5.15
2017-04-19T14:24:14.837Z,5.18
2017-04-19T14:25:15.438Z,5.21
2017-04-19T14:26:16.032Z,5.14
2017-04-19T14:27:16.631Z,5.25
2017-04-19T14:28:17.231Z,5.25
2017-04-19T14:29:17.844Z,5.10
2017-04-19T14:30:18.445Z,5.17
2017-04-19T14:31:19.044Z,5.28
2017-04-19T14:32:19.644Z,5.25
2017-04-19T14:33:20.242Z,5.21
2017-04-19T14:34:20.841Z,5.21
2017-04-19T14:35:21.442Z,5.20
2017-04-19T14:36:22.039Z,5.14
2017-04-19T14:37:22.638Z,5.11
2017-04-19T14:38:23.241Z,5.07
2017-04-19T14:39:23.837Z,5.14
2017-04-19T14:40:24.437Z,5.18
2017-04-19T14:41:25.036Z,5.25
2017-04-19T14:42:25.635Z,5.20
2017-04-19T14:43:26.232Z,5.14
2017-04-19T14:44:26.830Z,5.25
2017-04-19T14:45:27.444Z,5.11
2017-04-19T14:46:28.050Z,5.12
2017-04-19T14:47:28.653Z,5.07
2017-04-19T14:48:29.249Z,5.04
2017-04-19T14:49:29.846Z,5.08
2017-04-19T14:50:30.462Z,5.07
2017-04-19T14:51:31.060Z,5.07
2017-04-19T14:52:31.659Z,5.07
2017-04-19T14:53:32.280Z,5.00
2017-04-19T14:54:32.881Z,5.02
2017-04-19T14:55:33.475Z,5.05
2017-04-19T14:56:34.089Z,5.10
2017-04-19T14:57:34.688Z,5.11
2017-04-19T14:58:35.301Z,5.18
2017-04-19T14:59:35.900Z,5.17
2017-04-19T15:00:36.512Z,5.28
2017-04-19T15:01:37.104Z,5.35
2017-04-19T15:02:37.702Z,5.36
2017-04-19T15:03:38.324Z,5.36
2017-04-19T15:04:38.919Z,5.38
2017-04-19T15:05:39.518Z,5.44
2017-04-19T15:06:40.115Z,5.46
2017-04-19T15:07:40.715Z,5.50
2017-04-19T15:08:41.316Z,5.46
2017-04-19T15:09:41.919Z,5.44
2017-04-19T15:10:42.519Z,5.56
2017-04-19T15:11:43.141Z,5.51
2017-04-19T15:12:43.734Z,5.59
2017-04-19T15:13:44.334Z,5.64
2017-04-19T15:14:44.931Z,5.54
2017-04-19T15:15:45.553Z,5.54
2017-04-19T15:16:46.152Z,5.61
2017-04-19T15:17:46.766Z,5.65
2017-04-19T15:18:47.371Z,5.69
2017-04-19T15:19:47.971Z,5.66
2017-04-19T15:20:48.574Z,5.76
2017-04-19T15:21:49.178Z,5.73
2017-04-19T15:22:49.781Z,5.65
2017-04-19T15:23:50.383Z,5.69
2017-04-19T15:24:50.978Z,5.75
2017-04-19T15:25:51.576Z,5.79